Time;durP1;ratioP1;P1;durP2;ratioP2;P2;SDS_P1;SDS_P2;PMS_P1;PMS_P2;Temp;Humidity;BMP_temperature;BMP_pressure;BME280_temperature;BME280_humidity;BME280_pressure;Samples;Min_cycle;Max_cycle;Signal;HPM_P1;HPM_P2
2022/06/15 00:02:00;;;;;;;5.90;4.07;;;;;;;;;;4975064;28;20425;-53
2022/06/15 00:04:26;;;;;;;5.80;4.40;;;;;;;;;;4974968;28;20490;-54
2022/06/15 00:06:52;;;;;;;6.90;4.37;;;;;;;;;;4975087;28;20549;-54
2022/06/15 00:09:18;;;;;;;5.93;3.90;;;;;;;;;;4974998;28;20435;-54
2022/06/15 00:11:45;;;;;;;6.73;4.10;;;;;;;;;;4974728;28;20478;-54
2022/06/15 00:14:12;;;;;;;5.10;3.70;;;;;;;;;;4974719;28;20382;-54
2022/06/15 00:16:38;;;;;;;5.80;3.70;;;;;;;;;;4974900;28;20418;-54
2022/06/15 00:19:05;;;;;;;8.73;3.63;;;;;;;;;;4974816;28;20387;-54
2022/06/15 00:21:31;;;;;;;7.83;4.13;;;;;;;;;;4974648;28;20379;-54
2022/06/15 00:23:57;;;;;;;5.63;3.73;;;;;;;;;;4974520;28;20394;-54
2022/06/15 00:26:24;;;;;;;7.20;4.30;;;;;;;;;;4974546;28;20514;-54
2022/06/15 00:28:51;;;;;;;4.57;3.70;;;;;;;;;;4974998;28;20402;-54
2022/06/15 00:31:17;;;;;;;4.33;3.90;;;;;;;;;;4974632;28;20502;-54
2022/06/15 00:33:43;;;;;;;4.87;3.87;;;;;;;;;;4974276;28;21105;-53
2022/06/15 00:36:10;;;;;;;8.03;3.80;;;;;;;;;;4974490;28;21043;-54
2022/06/15 00:38:42;;;;;;;4.90;4.40;;;;;;;;;;4974459;28;20399;-53
2022/06/15 00:41:10;;;;;;;4.13;3.47;;;;;;;;;;4974286;28;20895;-54
2022/06/15 00:43:44;;;;;;;6.43;4.20;;;;;;;;;;4974016;28;20830;-54
2022/06/15 00:46:22;;;;;;;9.07;4.23;;;;;;;;;;4974455;28;20517;-54
2022/06/15 00:48:53;;;;;;;7.33;4.27;;;;;;;;;;4973122;28;20415;-54
2022/06/15 00:51:20;;;;;;;4.90;4.60;;;;;;;;;;4974136;28;20381;-54
2022/06/15 00:53:46;;;;;;;7.27;4.77;;;;;;;;;;4973954;28;20459;-54
2022/06/15 00:56:13;;;;;;;5.57;4.40;;;;;;;;;;4974148;28;20451;-54
2022/06/15 00:58:40;;;;;;;5.13;4.37;;;;;;;;;;4974101;28;20408;-55
2022/06/15 01:01:07;;;;;;;8.90;4.50;;;;;;;;;;4973966;28;20421;-54
2022/06/15 01:03:33;;;;;;;5.53;4.40;;;;;;;;;;4973250;28;20441;-54
2022/06/15 01:06:06;;;;;;;5.30;3.90;;;;;;;;;;4973414;28;20462;-54
2022/06/15 01:08:50;;;;;;;6.80;4.47;;;;;;;;;;4973838;28;20401;-54
2022/06/15 01:11:34;;;;;;;9.37;4.93;;;;;;;;;;4973705;28;20501;-53
2022/06/15 01:14:00;;;;;;;4.67;4.27;;;;;;;;;;4973600;28;20394;-54
2022/06/15 01:16:26;;;;;;;9.43;4.63;;;;;;;;;;4973706;28;20425;-54
2022/06/15 01:18:58;;;;;;;6.13;4.13;;;;;;;;;;4973730;28;20795;-54
2022/06/15 01:21:31;;;;;;;6.20;4.87;;;;;;;;;;4973520;28;20405;-54
2022/06/15 01:24:03;;;;;;;5.60;5.10;;;;;;;;;;4973445;28;20437;-54
2022/06/15 01:26:29;;;;;;;6.27;4.73;;;;;;;;;;4973593;28;20809;-53
2022/06/15 01:28:57;;;;;;;7.93;4.57;;;;;;;;;;4973514;28;20988;-54
2022/06/15 01:31:41;;;;;;;6.80;4.90;;;;;;;;;;4973412;28;20790;-54
2022/06/15 01:34:10;;;;;;;5.27;4.80;;;;;;;;;;4973353;28;20465;-54
2022/06/15 01:36:39;;;;;;;9.17;4.93;;;;;;;;;;4973404;28;20384;-54
2022/06/15 01:39:12;;;;;;;4.77;4.37;;;;;;;;;;4973444;28;20413;-53
2022/06/15 01:41:53;;;;;;;5.77;4.70;;;;;;;;;;4973226;28;20944;-54
2022/06/15 01:44:30;;;;;;;6.03;4.77;;;;;;;;;;4973231;28;20380;-53
2022/06/15 01:46:56;;;;;;;5.50;4.73;;;;;;;;;;4972838;28;20428;-54
2022/06/15 01:49:27;;;;;;;8.03;4.47;;;;;;;;;;4973301;28;20403;-53
2022/06/15 01:51:53;;;;;;;9.77;4.97;;;;;;;;;;4973086;28;20436;-54
2022/06/15 01:54:22;;;;;;;7.67;5.07;;;;;;;;;;4973216;28;20423;-53
2022/06/15 01:56:49;;;;;;;5.10;4.70;;;;;;;;;;4973196;28;20423;-54
2022/06/15 01:59:18;;;;;;;5.20;4.70;;;;;;;;;;4973227;28;20535;-53
2022/06/15 02:05:08;;;;;;;7.17;5.17;;;;;;;;;;4973057;28;20408;-54
2022/06/15 02:07:37;;;;;;;8.77;5.50;;;;;;;;;;4972917;28;20875;-54
2022/06/15 02:10:06;;;;;;;5.60;5.20;;;;;;;;;;4973117;28;20465;-54
2022/06/15 02:12:49;;;;;;;9.27;5.00;;;;;;;;;;4972723;28;20509;-54
2022/06/15 02:15:16;;;;;;;8.83;5.33;;;;;;;;;;4973091;28;20409;-54
2022/06/15 02:17:47;;;;;;;6.00;5.07;;;;;;;;;;4972875;28;20402;-54
2022/06/15 02:20:19;;;;;;;7.00;5.13;;;;;;;;;;4972889;28;20464;-54
2022/06/15 02:22:46;;;;;;;6.80;5.17;;;;;;;;;;4972664;28;21016;-54
2022/06/15 02:25:14;;;;;;;6.07;5.50;;;;;;;;;;4972942;28;20406;-54
2022/06/15 02:27:41;;;;;;;8.83;5.10;;;;;;;;;;4972832;28;20456;-53
2022/06/15 02:30:10;;;;;;;9.00;5.40;;;;;;;;;;4973336;28;20878;-53
2022/06/15 02:32:37;;;;;;;7.50;4.67;;;;;;;;;;4972564;28;20433;-53
2022/06/15 02:35:04;;;;;;;6.23;5.60;;;;;;;;;;4972826;28;20389;-54
2022/06/15 02:37:30;;;;;;;5.83;5.33;;;;;;;;;;4973123;28;20447;-53
2022/06/15 02:39:56;;;;;;;7.10;5.50;;;;;;;;;;4972721;28;20382;-54
2022/06/15 02:42:29;;;;;;;7.77;5.63;;;;;;;;;;4972359;28;20448;-54
2022/06/15 02:44:57;;;;;;;11.67;6.17;;;;;;;;;;4972774;28;20405;-54
2022/06/15 02:47:25;;;;;;;7.73;5.87;;;;;;;;;;4972663;28;20535;-54
2022/06/15 02:49:52;;;;;;;11.93;6.80;;;;;;;;;;4972664;28;20460;-54
2022/06/15 02:52:19;;;;;;;6.37;5.73;;;;;;;;;;4972508;28;20436;-54
2022/06/15 02:54:50;;;;;;;6.50;5.90;;;;;;;;;;4972636;28;20415;-54
2022/06/15 02:57:18;;;;;;;8.37;6.20;;;;;;;;;;4972671;28;20405;-54
2022/06/15 02:59:45;;;;;;;7.93;6.30;;;;;;;;;;4975315;28;20439;-54
2022/06/15 03:02:14;;;;;;;6.10;5.60;;;;;;;;;;4976394;28;20395;-54
2022/06/15 03:04:40;;;;;;;7.03;5.73;;;;;;;;;;4976058;28;20468;-54
2022/06/15 03:07:06;;;;;;;9.80;6.63;;;;;;;;;;4976096;28;20456;-54
2022/06/15 03:09:32;;;;;;;7.43;6.40;;;;;;;;;;4976071;28;20428;-54
2022/06/15 03:11:58;;;;;;;13.53;6.73;;;;;;;;;;4975851;28;20926;-54
2022/06/15 03:14:24;;;;;;;12.30;6.40;;;;;;;;;;4975799;28;20420;-54
2022/06/15 03:16:50;;;;;;;8.80;7.03;;;;;;;;;;4976189;28;20416;-54
2022/06/15 03:19:16;;;;;;;7.13;6.40;;;;;;;;;;4975940;28;20434;-53
2022/06/15 03:21:42;;;;;;;7.70;6.90;;;;;;;;;;4975705;28;20924;-54
2022/06/15 03:24:08;;;;;;;9.40;6.30;;;;;;;;;;4975602;28;20496;-53
2022/06/15 03:26:34;;;;;;;9.97;6.10;;;;;;;;;;4975656;28;20516;-53
2022/06/15 03:29:00;;;;;;;7.67;6.60;;;;;;;;;;4975938;28;20448;-54
2022/06/15 03:31:29;;;;;;;6.50;5.90;;;;;;;;;;4975675;28;20453;-54
2022/06/15 03:33:55;;;;;;;11.80;7.27;;;;;;;;;;4975438;28;20397;-54
2022/06/15 03:36:21;;;;;;;10.80;6.30;;;;;;;;;;4975620;28;20406;-54
2022/06/15 03:38:47;;;;;;;8.73;7.63;;;;;;;;;;4975471;28;20449;-54
2022/06/15 03:41:14;;;;;;;8.00;7.00;;;;;;;;;;4975472;28;20449;-54
2022/06/15 03:43:40;;;;;;;7.83;7.03;;;;;;;;;;4975727;28;20987;-52
2022/06/15 03:46:06;;;;;;;11.20;8.10;;;;;;;;;;4975394;28;20521;-51
2022/06/15 03:48:32;;;;;;;8.43;6.87;;;;;;;;;;4975398;28;20488;-51
2022/06/15 03:50:58;;;;;;;11.40;7.23;;;;;;;;;;4975314;28;20492;-52
2022/06/15 03:53:24;;;;;;;11.73;7.30;;;;;;;;;;4974958;28;20869;-51
2022/06/15 03:55:50;;;;;;;11.90;7.60;;;;;;;;;;4975245;28;20436;-52
2022/06/15 03:58:18;;;;;;;13.07;8.47;;;;;;;;;;4975305;28;20457;-52
2022/06/15 04:00:44;;;;;;;11.87;7.37;;;;;;;;;;4975126;28;20478;-51
2022/06/15 04:03:10;;;;;;;9.20;7.30;;;;;;;;;;4974920;28;20532;-51
2022/06/15 04:05:39;;;;;;;15.33;9.50;;;;;;;;;;4975042;28;20464;-51
2022/06/15 04:10:50;;;;;;;9.93;7.60;;;;;;;;;;4974527;28;20448;-51
2022/06/15 04:13:20;;;;;;;13.00;7.90;;;;;;;;;;4974735;28;20418;-51
2022/06/15 04:15:47;;;;;;;12.57;8.40;;;;;;;;;;4975014;28;20408;-52
2022/06/15 04:18:13;;;;;;;9.90;7.87;;;;;;;;;;4975336;28;20401;-51
2022/06/15 04:20:40;;;;;;;11.40;7.83;;;;;;;;;;4974704;28;20464;-51
2022/06/15 04:23:07;;;;;;;9.27;7.63;;;;;;;;;;4973293;28;20438;-53
2022/06/15 04:25:36;;;;;;;8.37;7.30;;;;;;;;;;4974660;28;20411;-52
2022/06/15 04:28:02;;;;;;;8.23;7.20;;;;;;;;;;4974768;28;20408;-51
2022/06/15 04:30:27;;;;;;;9.43;8.30;;;;;;;;;;4974691;28;20792;-51
2022/06/15 04:32:54;;;;;;;11.80;7.30;;;;;;;;;;4974208;28;20421;-51
2022/06/15 04:35:20;;;;;;;10.30;7.70;;;;;;;;;;4974545;28;20864;-52
2022/06/15 04:37:46;;;;;;;10.60;8.37;;;;;;;;;;4974693;28;20469;-51
2022/06/15 04:40:15;;;;;;;10.27;7.30;;;;;;;;;;4974527;28;20449;-52
2022/06/15 04:42:42;;;;;;;9.63;7.50;;;;;;;;;;4974014;28;20453;-52
2022/06/15 04:45:09;;;;;;;9.10;7.63;;;;;;;;;;4974372;28;20406;-52
2022/06/15 04:47:35;;;;;;;9.20;8.13;;;;;;;;;;4974160;28;20456;-52
2022/06/15 04:50:01;;;;;;;8.17;7.13;;;;;;;;;;4974230;28;20372;-51
2022/06/15 04:52:27;;;;;;;10.47;7.73;;;;;;;;;;4974179;28;20835;-51
2022/06/15 04:54:53;;;;;;;13.03;7.03;;;;;;;;;;4974463;28;20486;-51
2022/06/15 04:57:19;;;;;;;14.23;7.90;;;;;;;;;;4974115;28;20900;-52
2022/06/15 04:59:45;;;;;;;14.33;7.87;;;;;;;;;;4974166;28;20460;-51
2022/06/15 05:02:11;;;;;;;9.10;7.00;;;;;;;;;;4973811;28;20444;-52
2022/06/15 05:04:37;;;;;;;11.23;8.17;;;;;;;;;;4973801;28;20476;-52
2022/06/15 05:07:03;;;;;;;10.60;8.23;;;;;;;;;;4974015;28;20966;-54
2022/06/15 05:09:29;;;;;;;16.17;7.80;;;;;;;;;;4973916;28;20772;-52
2022/06/15 05:11:55;;;;;;;11.37;7.90;;;;;;;;;;4973754;28;20418;-55
2022/06/15 05:14:22;;;;;;;11.60;8.07;;;;;;;;;;4973647;28;20888;-52
2022/06/15 05:16:48;;;;;;;19.70;8.70;;;;;;;;;;4973719;28;20393;-52
2022/06/15 05:19:14;;;;;;;15.53;7.70;;;;;;;;;;4973782;28;20923;-51
2022/06/15 05:21:40;;;;;;;9.57;8.57;;;;;;;;;;4972996;28;20923;-52
2022/06/15 05:24:06;;;;;;;9.13;7.73;;;;;;;;;;4973139;28;20499;-53
2022/06/15 05:26:32;;;;;;;10.93;7.13;;;;;;;;;;4972383;28;21007;-54
2022/06/15 05:28:58;;;;;;;8.33;6.50;;;;;;;;;;4972607;28;20392;-52
2022/06/15 05:31:24;;;;;;;10.57;7.40;;;;;;;;;;4972198;28;20441;-52
2022/06/15 05:33:55;;;;;;;7.83;7.07;;;;;;;;;;4972126;28;20411;-51
2022/06/15 05:36:26;;;;;;;11.13;7.83;;;;;;;;;;4972413;28;20376;-53
2022/06/15 05:38:52;;;;;;;10.60;8.60;;;;;;;;;;4972366;28;20403;-52
2022/06/15 05:41:18;;;;;;;15.50;7.70;;;;;;;;;;4972573;28;20889;-52
2022/06/15 05:43:49;;;;;;;13.90;7.37;;;;;;;;;;4972432;28;20531;-52
2022/06/15 05:46:15;;;;;;;9.93;7.57;;;;;;;;;;4973250;28;20489;-52
2022/06/15 05:48:41;;;;;;;9.93;8.30;;;;;;;;;;4973215;28;20464;-51
2022/06/15 05:51:07;;;;;;;9.33;7.47;;;;;;;;;;4973201;28;20469;-52
2022/06/15 05:53:33;;;;;;;8.20;7.40;;;;;;;;;;4972956;28;20400;-52
2022/06/15 05:55:59;;;;;;;9.17;7.60;;;;;;;;;;4973286;28;20432;-52
2022/06/15 05:58:25;;;;;;;15.70;9.13;;;;;;;;;;4973144;28;20389;-55
2022/06/15 06:00:51;;;;;;;10.90;7.70;;;;;;;;;;4973020;28;20762;-51
2022/06/15 06:03:17;;;;;;;9.87;8.90;;;;;;;;;;4972844;28;20515;-52
2022/06/15 06:05:43;;;;;;;8.00;7.20;;;;;;;;;;4972987;28;20412;-51
2022/06/15 06:08:08;;;;;;;11.10;7.03;;;;;;;;;;4973319;28;20832;-52
2022/06/15 06:10:34;;;;;;;9.33;7.83;;;;;;;;;;4973006;28;20387;-52
2022/06/15 06:13:01;;;;;;;11.17;7.60;;;;;;;;;;4972766;28;20903;-52
2022/06/15 06:15:26;;;;;;;10.10;6.97;;;;;;;;;;4972985;28;20910;-52
2022/06/15 06:17:52;;;;;;;10.73;7.77;;;;;;;;;;4972971;28;20463;-52
2022/06/15 06:20:18;;;;;;;7.43;6.73;;;;;;;;;;4972920;28;20798;-53
2022/06/15 06:22:44;;;;;;;12.63;7.33;;;;;;;;;;4972657;28;20428;-55
2022/06/15 06:25:10;;;;;;;10.47;7.17;;;;;;;;;;4972933;28;20404;-51
2022/06/15 06:27:36;;;;;;;9.03;7.10;;;;;;;;;;4972681;28;20472;-52
2022/06/15 06:30:04;;;;;;;8.50;6.80;;;;;;;;;;4972818;28;20375;-52
2022/06/15 06:32:30;;;;;;;9.40;6.27;;;;;;;;;;4972592;28;20432;-52
2022/06/15 06:34:56;;;;;;;10.10;7.20;;;;;;;;;;4976296;28;20406;-53
2022/06/15 06:37:22;;;;;;;13.20;6.37;;;;;;;;;;4976734;28;20387;-54
2022/06/15 06:39:49;;;;;;;9.03;7.20;;;;;;;;;;4976596;28;20448;-52
2022/06/15 06:42:15;;;;;;;14.47;7.00;;;;;;;;;;4976304;28;20518;-52
2022/06/15 06:44:42;;;;;;;9.90;6.60;;;;;;;;;;4976415;28;20427;-52
2022/06/15 06:47:08;;;;;;;9.00;7.50;;;;;;;;;;4976445;28;20462;-55
2022/06/15 06:49:35;;;;;;;12.20;6.90;;;;;;;;;;4976438;28;20735;-52
2022/06/15 06:52:01;;;;;;;11.27;7.33;;;;;;;;;;4976385;28;20422;-52
2022/06/15 06:54:28;;;;;;;11.33;7.03;;;;;;;;;;4976370;28;20803;-52
2022/06/15 06:56:54;;;;;;;9.33;7.30;;;;;;;;;;4976285;28;20931;-52
2022/06/15 06:59:20;;;;;;;8.57;6.93;;;;;;;;;;4976271;28;20735;-52
2022/06/15 07:01:46;;;;;;;9.77;7.10;;;;;;;;;;4976236;28;20894;-52
2022/06/15 07:04:14;;;;;;;10.23;6.03;;;;;;;;;;4977114;28;20399;-55
2022/06/15 07:06:41;;;;;;;7.40;6.30;;;;;;;;;;4979874;28;20470;-52
2022/06/15 07:09:08;;;;;;;8.73;6.63;;;;;;;;;;4978558;28;20407;-53
2022/06/15 07:11:34;;;;;;;8.47;6.37;;;;;;;;;;4981402;28;20426;-56
2022/06/15 07:14:05;;;;;;;10.00;6.13;;;;;;;;;;4980475;28;20954;-55
2022/06/15 07:16:31;;;;;;;8.20;6.67;;;;;;;;;;4981536;28;20415;-52
2022/06/15 07:19:01;;;;;;;9.27;6.10;;;;;;;;;;4980612;28;20414;-53
2022/06/15 07:21:28;;;;;;;7.17;6.03;;;;;;;;;;4981646;28;20493;-54
2022/06/15 07:23:59;;;;;;;7.57;6.00;;;;;;;;;;4978800;28;20411;-52
2022/06/15 07:26:28;;;;;;;7.23;5.40;;;;;;;;;;4979959;28;20487;-52
2022/06/15 07:28:54;;;;;;;6.77;5.90;;;;;;;;;;4980292;28;20384;-52
2022/06/15 07:31:22;;;;;;;8.77;6.80;;;;;;;;;;4981285;28;20402;-55
2022/06/15 07:33:49;;;;;;;7.03;5.93;;;;;;;;;;4980377;28;20409;-54
2022/06/15 07:36:16;;;;;;;10.37;5.90;;;;;;;;;;4978950;28;20427;-53
2022/06/15 07:38:42;;;;;;;8.37;6.43;;;;;;;;;;4978861;28;20412;-56
2022/06/15 07:41:11;;;;;;;8.77;5.17;;;;;;;;;;4979191;28;20475;-52
2022/06/15 07:43:39;;;;;;;10.20;5.77;;;;;;;;;;4979204;28;20455;-53
2022/06/15 07:46:06;;;;;;;6.83;4.70;;;;;;;;;;4978468;28;20482;-53
2022/06/15 07:51:32;;;;;;;8.00;5.90;;;;;;;;;;4978640;28;20812;-52
2022/06/15 07:54:03;;;;;;;6.40;4.70;;;;;;;;;;4978509;28;20413;-55
2022/06/15 07:56:29;;;;;;;7.33;4.83;;;;;;;;;;4979625;28;20405;-56
2022/06/15 07:58:59;;;;;;;6.43;4.87;;;;;;;;;;4980863;28;20409;-52
2022/06/15 08:01:25;;;;;;;5.43;4.80;;;;;;;;;;4979627;28;20909;-52
2022/06/15 08:03:51;;;;;;;6.10;4.57;;;;;;;;;;4978899;28;20398;-52
2022/06/15 08:06:18;;;;;;;5.13;4.50;;;;;;;;;;4977897;28;20494;-55
2022/06/15 08:08:45;;;;;;;8.10;4.43;;;;;;;;;;4980319;28;20500;-56
2022/06/15 08:11:17;;;;;;;3.97;3.10;;;;;;;;;;4978413;28;20476;-57
2022/06/15 08:13:43;;;;;;;6.30;4.43;;;;;;;;;;4978569;28;20429;-53
2022/06/15 08:16:13;;;;;;;4.47;3.40;;;;;;;;;;4979719;28;20440;-55
2022/06/15 08:18:41;;;;;;;10.23;5.40;;;;;;;;;;4964883;28;20407;-55
2022/06/15 08:21:14;;;;;;;5.67;4.03;;;;;;;;;;4978422;28;20424;-55
2022/06/15 08:23:44;;;;;;;8.63;3.60;;;;;;;;;;4981819;28;20440;-54
2022/06/15 08:26:18;;;;;;;3.47;3.13;;;;;;;;;;4977974;28;20459;-55
2022/06/15 08:28:56;;;;;;;4.33;2.83;;;;;;;;;;4979438;28;20426;-55
2022/06/15 08:31:26;;;;;;;3.93;2.90;;;;;;;;;;4977913;28;20491;-56
2022/06/15 08:33:52;;;;;;;3.20;2.73;;;;;;;;;;4977682;28;20821;-53
2022/06/15 08:36:20;;;;;;;4.13;3.50;;;;;;;;;;4961425;28;20441;-57
2022/06/15 08:38:46;;;;;;;3.03;2.73;;;;;;;;;;4976874;28;20424;-53
2022/06/15 08:41:31;;;;;;;3.17;2.93;;;;;;;;;;4978811;28;20392;-54
2022/06/15 08:43:57;;;;;;;3.73;2.90;;;;;;;;;;4976621;28;20851;-57
2022/06/15 08:46:34;;;;;;;6.23;2.93;;;;;;;;;;4977087;28;20500;-55
2022/06/15 08:49:15;;;;;;;4.53;3.33;;;;;;;;;;4978468;28;20507;-56
2022/06/15 08:51:44;;;;;;;3.40;3.10;;;;;;;;;;4977645;28;20429;-57
2022/06/15 08:54:17;;;;;;;3.67;2.93;;;;;;;;;;4978884;28;20960;-57
2022/06/15 08:56:47;;;;;;;4.67;3.10;;;;;;;;;;4980960;28;20425;-57
2022/06/15 08:59:23;;;;;;;3.37;2.60;;;;;;;;;;4979176;28;20421;-57
2022/06/15 09:01:56;;;;;;;4.37;2.53;;;;;;;;;;4975081;28;20440;-54
2022/06/15 09:04:37;;;;;;;3.63;2.30;;;;;;;;;;4977207;28;20414;-54
2022/06/15 09:07:06;;;;;;;3.00;2.73;;;;;;;;;;4976556;28;20487;-56
2022/06/15 09:10:02;;;;;;;5.30;2.57;;;;;;;;;;4978363;28;20401;-54
2022/06/15 09:15:18;;;;;;;6.27;3.30;;;;;;;;;;4976580;28;20485;-54
2022/06/15 09:17:46;;;;;;;9.03;3.00;;;;;;;;;;4960029;28;20421;-57
2022/06/15 09:20:18;;;;;;;8.07;2.70;;;;;;;;;;4979692;28;20489;-56
2022/06/15 09:22:48;;;;;;;3.00;2.30;;;;;;;;;;4977399;28;20524;-57
2022/06/15 09:25:20;;;;;;;4.80;2.50;;;;;;;;;;4974937;28;20479;-57
2022/06/15 09:27:55;;;;;;;4.70;2.33;;;;;;;;;;4974761;28;20471;-54
2022/06/15 09:30:23;;;;;;;3.10;2.17;;;;;;;;;;4977816;28;20425;-57
2022/06/15 09:33:01;;;;;;;3.13;2.57;;;;;;;;;;4976060;28;20444;-57
2022/06/15 09:35:36;;;;;;;3.00;2.40;;;;;;;;;;4979295;28;20503;-57
2022/06/15 09:38:04;;;;;;;4.60;2.60;;;;;;;;;;4974633;28;20971;-57
2022/06/15 09:40:35;;;;;;;2.60;2.40;;;;;;;;;;4974201;28;20893;-54
2022/06/15 09:43:02;;;;;;;5.47;3.10;;;;;;;;;;4972894;28;20933;-54
2022/06/15 09:45:27;;;;;;;5.20;2.70;;;;;;;;;;4973623;28;20789;-54
2022/06/15 09:48:12;;;;;;;3.80;2.70;;;;;;;;;;4973138;28;20484;-54
2022/06/15 09:50:46;;;;;;;3.63;2.80;;;;;;;;;;4972735;28;20404;-56
2022/06/15 09:53:16;;;;;;;4.17;2.40;;;;;;;;;;4972931;28;20813;-54
2022/06/15 09:55:45;;;;;;;5.03;3.03;;;;;;;;;;4973237;28;20401;-54
2022/06/15 09:58:15;;;;;;;8.27;2.77;;;;;;;;;;4972817;28;20407;-55
2022/06/15 10:00:41;;;;;;;3.23;2.63;;;;;;;;;;4972771;28;20401;-55
2022/06/15 10:03:17;;;;;;;3.47;3.20;;;;;;;;;;4972713;28;20432;-56
2022/06/15 10:05:44;;;;;;;8.63;3.20;;;;;;;;;;4975824;28;20393;-58
2022/06/15 10:08:13;;;;;;;4.17;2.50;;;;;;;;;;4974131;28;20409;-57
2022/06/15 10:10:44;;;;;;;4.70;2.60;;;;;;;;;;4973114;28;20413;-58
2022/06/15 10:13:16;;;;;;;4.47;2.57;;;;;;;;;;4972459;28;20504;-58
2022/06/15 10:15:42;;;;;;;5.47;2.77;;;;;;;;;;4973113;28;20873;-58
2022/06/15 10:18:17;;;;;;;9.10;2.70;;;;;;;;;;4973272;28;20882;-57
2022/06/15 10:20:54;;;;;;;4.43;2.40;;;;;;;;;;4973172;28;20404;-57
2022/06/15 10:23:22;;;;;;;13.87;2.63;;;;;;;;;;4972893;28;20435;-58
2022/06/15 10:25:50;;;;;;;4.43;3.70;;;;;;;;;;4973007;28;20401;-58
2022/06/15 10:28:21;;;;;;;4.13;2.50;;;;;;;;;;4973194;28;20405;-58
2022/06/15 10:30:51;;;;;;;3.10;2.70;;;;;;;;;;4973219;28;20505;-58
2022/06/15 10:33:19;;;;;;;10.97;4.97;;;;;;;;;;4972991;28;20420;-57
2022/06/15 10:35:49;;;;;;;4.33;2.40;;;;;;;;;;4973210;28;20886;-58
2022/06/15 10:38:17;;;;;;;3.30;2.93;;;;;;;;;;4972902;28;20900;-57
2022/06/15 10:40:52;;;;;;;6.23;2.90;;;;;;;;;;4972941;28;20405;-58
2022/06/15 10:43:21;;;;;;;4.17;2.47;;;;;;;;;;4971198;28;20451;-58
2022/06/15 10:45:53;;;;;;;6.97;2.60;;;;;;;;;;4972809;28;20405;-58
2022/06/15 10:48:21;;;;;;;4.77;2.53;;;;;;;;;;4973298;28;20769;-56
2022/06/15 10:50:50;;;;;;;3.33;2.90;;;;;;;;;;4973008;28;20796;-57
2022/06/15 10:53:42;;;;;;;14.00;2.93;;;;;;;;;;4972683;28;20955;-57
2022/06/15 11:02:10;;;;;;;5.23;2.57;;;;;;;;;;4973178;28;20451;-57
2022/06/15 11:04:51;;;;;;;4.43;2.13;;;;;;;;;;4973057;28;20392;-58
2022/06/15 11:07:26;;;;;;;5.33;2.00;;;;;;;;;;4972937;28;20563;-58
2022/06/15 11:09:55;;;;;;;5.23;2.07;;;;;;;;;;4972759;28;20512;-57
2022/06/15 11:12:22;;;;;;;7.03;2.60;;;;;;;;;;4971990;28;20468;-57
2022/06/15 11:14:50;;;;;;;2.90;2.40;;;;;;;;;;4971364;28;20405;-57
2022/06/15 11:20:07;;;;;;;5.30;3.40;;;;;;;;;;4971257;28;20484;-58
2022/06/15 11:22:34;;;;;;;4.10;3.40;;;;;;;;;;4975820;28;20427;-57
2022/06/15 11:25:05;;;;;;;6.27;3.87;;;;;;;;;;4975741;28;20396;-57
2022/06/15 11:27:40;;;;;;;9.83;3.40;;;;;;;;;;4975888;28;20456;-58
2022/06/15 11:30:27;;;;;;;6.30;3.63;;;;;;;;;;4975773;28;20423;-58
2022/06/15 11:33:06;;;;;;;3.80;2.93;;;;;;;;;;4975571;28;20752;-58
2022/06/15 11:35:36;;;;;;;4.07;2.83;;;;;;;;;;4975745;28;20412;-58
2022/06/15 11:38:05;;;;;;;3.73;2.60;;;;;;;;;;4975681;28;20772;-58
2022/06/15 11:40:35;;;;;;;4.57;2.80;;;;;;;;;;4975630;28;20409;-57
2022/06/15 11:43:02;;;;;;;8.07;3.67;;;;;;;;;;4975402;28;20497;-56
2022/06/15 11:45:45;;;;;;;3.90;2.70;;;;;;;;;;4975565;28;20488;-57
2022/06/15 11:48:26;;;;;;;4.60;2.80;;;;;;;;;;4974949;28;20416;-56
2022/06/15 11:50:56;;;;;;;4.30;2.93;;;;;;;;;;4976269;28;20397;-58
2022/06/15 11:53:33;;;;;;;3.40;2.80;;;;;;;;;;4973798;28;20469;-57
2022/06/15 11:56:04;;;;;;;4.10;2.93;;;;;;;;;;4975340;28;20416;-57
2022/06/15 11:58:42;;;;;;;4.03;3.00;;;;;;;;;;4975368;28;20405;-58
2022/06/15 12:01:20;;;;;;;4.60;2.50;;;;;;;;;;4975243;28;20439;-58
2022/06/15 12:04:09;;;;;;;4.33;3.10;;;;;;;;;;4974990;28;20464;-58
2022/06/15 12:06:41;;;;;;;3.10;2.10;;;;;;;;;;4974973;28;20484;-57
2022/06/15 12:09:26;;;;;;;6.77;2.27;;;;;;;;;;4975049;28;20401;-58
2022/06/15 12:14:52;;;;;;;3.60;2.90;;;;;;;;;;4975300;28;20512;-57
2022/06/15 12:17:24;;;;;;;2.57;2.37;;;;;;;;;;4974864;28;20417;-57
2022/06/15 12:19:55;;;;;;;5.33;2.43;;;;;;;;;;4973875;28;20500;-57
2022/06/15 12:22:28;;;;;;;3.40;3.10;;;;;;;;;;4974581;28;20904;-58
2022/06/15 12:24:56;;;;;;;6.50;3.13;;;;;;;;;;4974858;28;20417;-57
2022/06/15 12:27:31;;;;;;;4.10;2.60;;;;;;;;;;4974782;28;20950;-57
2022/06/15 12:30:02;;;;;;;3.13;2.67;;;;;;;;;;4974666;28;20412;-57
2022/06/15 12:32:34;;;;;;;3.87;2.13;;;;;;;;;;4974052;28;20447;-57
2022/06/15 12:35:00;;;;;;;3.03;2.20;;;;;;;;;;4974551;28;20397;-57
2022/06/15 12:37:39;;;;;;;2.93;2.60;;;;;;;;;;4974642;28;20415;-57
2022/06/15 12:40:13;;;;;;;3.97;2.30;;;;;;;;;;4974551;28;20256;-57
2022/06/15 12:42:39;;;;;;;7.77;2.93;;;;;;;;;;4974228;28;20455;-56
2022/06/15 12:45:14;;;;;;;3.17;1.87;;;;;;;;;;4975014;28;20409;-57
2022/06/15 12:47:40;;;;;;;3.53;2.37;;;;;;;;;;4974339;28;20460;-58
2022/06/15 12:50:25;;;;;;;5.30;3.80;;;;;;;;;;4974352;28;20464;-57
2022/06/15 12:53:00;;;;;;;5.33;2.80;;;;;;;;;;4974177;28;20421;-57
2022/06/15 12:55:34;;;;;;;8.30;3.00;;;;;;;;;;4974364;28;20768;-57
2022/06/15 12:58:20;;;;;;;3.27;2.53;;;;;;;;;;4974282;28;20393;-57
2022/06/15 13:00:51;;;;;;;3.27;2.50;;;;;;;;;;4974145;28;20400;-57
2022/06/15 13:03:20;;;;;;;3.87;2.13;;;;;;;;;;4973905;28;20428;-57
2022/06/15 13:05:46;;;;;;;4.50;2.50;;;;;;;;;;4974539;28;20403;-57
2022/06/15 13:08:14;;;;;;;4.03;2.73;;;;;;;;;;4974021;28;20788;-57
2022/06/15 13:11:00;;;;;;;4.30;2.40;;;;;;;;;;4973929;28;20425;-58
2022/06/15 13:13:29;;;;;;;4.03;2.47;;;;;;;;;;4973764;28;20449;-57
2022/06/15 13:15:57;;;;;;;3.13;2.83;;;;;;;;;;4973923;28;20878;-58
2022/06/15 13:18:42;;;;;;;3.60;2.87;;;;;;;;;;4973856;28;20425;-57
2022/06/15 13:21:08;;;;;;;3.87;2.40;;;;;;;;;;4973742;28;20436;-57
2022/06/15 13:23:36;;;;;;;3.57;2.30;;;;;;;;;;4973495;28;20425;-58
2022/06/15 13:26:20;;;;;;;4.30;3.00;;;;;;;;;;4973704;28;20549;-57
2022/06/15 13:29:06;;;;;;;7.20;2.50;;;;;;;;;;4973739;28;20405;-58
2022/06/15 13:31:44;;;;;;;4.00;2.60;;;;;;;;;;4973451;28;20409;-57
2022/06/15 13:34:14;;;;;;;5.07;2.40;;;;;;;;;;4973386;28;20800;-57
2022/06/15 13:36:41;;;;;;;3.17;1.93;;;;;;;;;;4973632;28;20405;-57
2022/06/15 13:39:26;;;;;;;3.80;2.20;;;;;;;;;;4973571;28;20412;-58
2022/06/15 13:42:13;;;;;;;2.53;2.10;;;;;;;;;;4973217;28;20428;-58
2022/06/15 13:44:49;;;;;;;3.90;2.10;;;;;;;;;;4965549;28;20468;-57
2022/06/15 13:47:15;;;;;;;2.53;2.17;;;;;;;;;;4973443;28;20856;-57
2022/06/15 13:49:41;;;;;;;4.87;2.33;;;;;;;;;;4973364;28;20405;-57
2022/06/15 13:52:09;;;;;;;3.10;2.77;;;;;;;;;;4973248;28;20431;-57
2022/06/15 13:54:45;;;;;;;2.27;2.07;;;;;;;;;;4971570;28;20924;-57
2022/06/15 13:57:14;;;;;;;3.70;1.93;;;;;;;;;;4973319;28;20405;-56
2022/06/15 13:59:52;;;;;;;3.87;2.50;;;;;;;;;;4973004;28;20409;-58
2022/06/15 14:02:25;;;;;;;2.93;2.37;;;;;;;;;;4972827;28;20987;-57
2022/06/15 14:05:06;;;;;;;4.10;2.40;;;;;;;;;;4973075;28;20773;-57
2022/06/15 14:07:51;;;;;;;3.17;2.73;;;;;;;;;;4973050;28;20456;-58
2022/06/15 14:10:25;;;;;;;4.80;2.73;;;;;;;;;;4973426;28;20400;-57
2022/06/15 14:12:57;;;;;;;3.33;2.40;;;;;;;;;;4972632;28;20409;-57
2022/06/15 14:15:36;;;;;;;5.57;2.60;;;;;;;;;;4972994;28;20397;-57
2022/06/15 14:18:22;;;;;;;8.43;2.60;;;;;;;;;;4977376;28;20828;-54
2022/06/15 14:20:49;;;;;;;6.03;2.70;;;;;;;;;;4973567;28;20834;-58
2022/06/15 14:23:26;;;;;;;6.17;2.60;;;;;;;;;;4973157;28;20425;-55
2022/06/15 14:25:52;;;;;;;4.40;2.43;;;;;;;;;;4972819;28;20404;-54
2022/06/15 14:28:22;;;;;;;3.63;2.50;;;;;;;;;;4972940;28;20740;-56
2022/06/15 14:30:50;;;;;;;3.40;2.83;;;;;;;;;;4972769;28;20436;-55
2022/06/15 14:33:25;;;;;;;2.97;2.00;;;;;;;;;;4972728;28;20777;-55
2022/06/15 14:35:58;;;;;;;3.47;2.03;;;;;;;;;;4972754;28;21009;-55
2022/06/15 14:38:24;;;;;;;2.30;2.10;;;;;;;;;;4972884;28;20772;-55
2022/06/15 14:40:51;;;;;;;2.60;2.20;;;;;;;;;;4972755;28;20828;-54
2022/06/15 14:43:21;;;;;;;3.93;2.60;;;;;;;;;;4972362;28;20448;-54
2022/06/15 14:45:54;;;;;;;3.60;2.20;;;;;;;;;;4972655;28;20812;-54
2022/06/15 14:48:33;;;;;;;2.33;2.03;;;;;;;;;;4972540;28;20764;-55
2022/06/15 14:51:06;;;;;;;5.80;2.60;;;;;;;;;;4972616;28;20467;-55
2022/06/15 14:53:34;;;;;;;3.10;2.80;;;;;;;;;;4972545;28;20539;-55
2022/06/15 14:56:00;;;;;;;2.40;2.20;;;;;;;;;;4975887;28;20906;-55
2022/06/15 14:58:26;;;;;;;3.50;2.67;;;;;;;;;;4976368;28;20397;-56
2022/06/15 15:01:04;;;;;;;2.97;2.40;;;;;;;;;;4976305;28;20397;-56
2022/06/15 15:03:32;;;;;;;5.53;3.00;;;;;;;;;;4976901;28;20420;-57
2022/06/15 15:06:02;;;;;;;3.80;2.63;;;;;;;;;;4978326;28;20401;-58
2022/06/15 15:08:28;;;;;;;2.23;2.03;;;;;;;;;;4977894;28;20440;-58
2022/06/15 15:10:56;;;;;;;3.70;2.40;;;;;;;;;;4978604;28;20393;-58
2022/06/15 15:13:25;;;;;;;3.73;2.13;;;;;;;;;;4976597;28;20240;-59
2022/06/15 15:15:53;;;;;;;2.40;2.20;;;;;;;;;;4976441;28;20995;-59
2022/06/15 15:18:22;;;;;;;4.03;1.70;;;;;;;;;;4976506;28;20400;-59
2022/06/15 15:20:49;;;;;;;2.77;2.20;;;;;;;;;;4976565;28;20475;-57